Weatherford, Texas
Current Conditions -  °F | °C
As of 2:53 AM on Wednesday 26 Nov 2014 (Local Time) from KMWL Reporting Station
Clear Clear  
Wind Chill: 33°   Ceiling: Unl
Heat Index: 37°   Visibility: 10mi
Dew Point: 29°   Wind: 5mph
Humidity: 73%   Direction: 130°SE
Pressure: 30.05"   Gusts: NA
Location:  32.76°N, 97.8°W
Report Text: KMWL 260853Z AUTO 13004KT 10SM CLR 03/M02 A3005 RMK AO2 SLPNO T00281017 55010
Loading
Personal Weather Stations






























Interactive Weather Map New forecast layout! Learn more

10-Day Weather Forecast

Advertisements
Track Severe Weather on mobile